Terminal Aerodrome Forecast
Issued by NWS Sterling, VA

Current Version | Previous Version | Text Only | Print | Product List | Glossary Off
Versions: 1 2 3 4 5 6 7 8 9 10 11 12

000
FTUS41 KLWX 161700
TAFMRB
TAF
KMRB 161720Z 1618/1718 32005KT P6SM BKN050
     FM162200 VRB03KT P6SM FEW200
     FM170800 00000KT 5SM BR FEW200
     FM171200 VRB03KT P6SM SCT050
     FM171500 VRB03KT P6SM SCT050=

USA.gov is the U.S. government's official web portal to all federal, state and local government web resources and services.